QUAO2: Spring River Near Quapaw, OK

                                SHEF ID:       QUAO2     Spring River near Quapaw, OK
STATION TYPE:
Regulating: Stage = 20.00, Flow = 33834

PRECIP STAGE STAGE(2) RIV-FLOW BAT-LOAD
in ft ft cfs volt
Ccp-Rev Ccp-Rev Ccp-Rev Ccp-Rev Ccp-Rev
(America/Chicago)
04/28 00:00 0.00 12.46 12.85 11724 12.47
04/28 01:00 0.00 12.24 12.54 11220 12.31
04/28 02:00 0.00 11.94 12.18 10548 12.40
04/28 03:00 0.00 11.59 11.82 9839 12.40
04/28 04:00 0.00 11.33 11.47 9346 12.38
04/28 05:00 0.00 11.04 11.15 8807 12.37
04/28 06:00 0.00 10.69 10.87 8104 12.36
04/28 07:00 0.00 10.51 10.61 7732 12.34
04/28 08:00 0.00 10.31 10.37 7321 12.37
04/28 09:00 0.00 10.14 10.18 6953 12.57
04/28 10:00 0.00 9.95 10.03 6554 12.96
04/28 11:00 0.00 9.86 9.88 6369 13.23
04/28 12:00 0.00 9.71 9.78 6063 13.49
04/28 13:00 0.22 9.65 9.69 5941 12.93
04/28 14:00 0.09 9.58 9.61 5800 12.67
04/28 15:00 0.00 9.49 9.53 5622 13.09
04/28 16:00 0.08 9.42 9.47 5486 13.28
04/28 17:00 0.12 9.38 9.43 5409 12.94
04/28 18:00 0.00 9.32 9.39 5295 12.97
04/28 19:00 0.00 9.30 9.37 5257 12.73
04/28 20:00 0.00 9.41 9.47 5467 12.53
04/28 21:00 0.00 9.73 9.81 6104 12.48
04/28 22:00 0.00 10.34 10.46 7387 12.46
04/28 23:00 0.00 10.91 11.13 8569 12.42
Data processed at Wed 29Apr2026 04:21 GMT

NOTICE: If you are parsing this page

Please convert to using our Data API. Starting early 2026 we will be migrating to: https://water.usace.army.mil with modern pages rendered in JavaScript. When this migration completes you will no longer be able to scrape this page! CWMSDataAPI (CDA)

Timeseries IDs (TSIDs)

TSIDs used from left to right in the data table
QUAP.Precip-Inc.Total.1Hour.1Hour.Ccp-Rev
QUAP.Stage.Inst.1Hour.0.Ccp-Rev
QUAP.Stage-Alt.Inst.1Hour.0.Ccp-Rev
QUAP.Flow.Inst.1Hour.0.Ccp-Rev
QUAP.Volt-Battery Load.Inst.1Hour.0.Ccp-Rev

                            

All information presented herein is the property of the government of the United States of America and may be revised or deleted at any time without prior notice. Dissemination of this information without the expressed written consent of the Public Affairs Office, Tulsa District U.S. Army Corps of Engineers is strictly prohibited. These data are gathered electronically and, as presented, have NOT undergone any form of quality control. These data are NOT guaranteed to be valid or correct.